Terminal Aerodrome Forecast
Issued by NWS Salt Lake City, UT

Home | Current Version | Previous Version | Text Only | Print | Product List | Glossary On
Versions: 1 2 3 4 5 6 7 8 9 10 11 12 13 14 15 16 17 18 19 20 21 22 23 24 25 26 27 28 29 30 31 32 33 34 35 36 37 38
000
FTUS45 KSLC 170550
TAFCDC
TAF
KCDC 170550Z 1706/1806 22010KT P6SM SCT080 BKN120
     FM170800 22009KT P6SM SCT040 BKN080
     FM171900 22010G17KT P6SM VCSH SCT020 BKN040
     FM172100 21020G28KT P6SM -RA SCT020 BKN035
     FM180400 25022G33KT P6SM -RA SCT030 BKN050=

USA.gov is the U.S. government's official web portal to all federal, state and local government web resources and services.